createdAt,value
2018-12-15T00:00:47.782Z,17.37
2018-12-15T00:03:16.295Z,17.53
2018-12-15T00:05:44.685Z,18.47
2018-12-15T00:08:12.992Z,17.33
2018-12-15T00:10:41.374Z,18.60
2018-12-15T00:13:09.631Z,17.00
2018-12-15T00:15:38.171Z,18.40
2018-12-15T00:18:06.486Z,17.60
2018-12-15T00:20:35.341Z,18.63
2018-12-15T00:23:03.722Z,19.43
2018-12-15T00:25:32.246Z,19.13
2018-12-15T00:28:00.566Z,17.67
2018-12-15T00:30:28.947Z,19.17
2018-12-15T00:32:57.219Z,18.47
2018-12-15T00:35:25.430Z,19.53
2018-12-15T00:37:53.606Z,17.73
2018-12-15T00:40:21.822Z,19.83
2018-12-15T00:42:50.051Z,19.53
2018-12-15T00:45:18.252Z,19.07
2018-12-15T00:47:46.409Z,18.37
2018-12-15T00:50:14.552Z,19.43
2018-12-15T00:52:42.777Z,18.60
2018-12-15T00:55:10.922Z,19.30
2018-12-15T00:57:39.170Z,19.07
2018-12-15T01:00:07.463Z,19.30
2018-12-15T01:02:35.621Z,19.07
2018-12-15T01:05:04.134Z,18.73
2018-12-15T01:07:32.369Z,19.20
2018-12-15T01:10:00.533Z,19.00
2018-12-15T01:12:28.684Z,19.47
2018-12-15T01:14:56.843Z,20.10
2018-12-15T01:17:25.050Z,19.77
2018-12-15T01:19:53.180Z,18.07
2018-12-15T01:22:21.325Z,19.23
2018-12-15T01:24:49.475Z,19.90
2018-12-15T01:27:17.617Z,20.20
2018-12-15T01:29:45.768Z,19.33
2018-12-15T01:32:13.898Z,20.77
2018-12-15T01:34:42.062Z,20.37
2018-12-15T01:37:10.202Z,20.23
2018-12-15T01:39:38.351Z,20.83
2018-12-15T01:42:06.637Z,20.30
2018-12-15T01:44:34.833Z,19.90
2018-12-15T01:47:03.025Z,21.50
2018-12-15T01:49:31.181Z,19.10
2018-12-15T01:51:59.468Z,20.60
2018-12-15T01:54:27.630Z,20.70
2018-12-15T01:56:55.773Z,21.10
2018-12-15T01:59:24.003Z,19.93
2018-12-15T02:01:52.244Z,20.63
2018-12-15T02:04:20.517Z,21.50
2018-12-15T02:06:48.745Z,20.03
2018-12-15T02:09:17.046Z,20.47
2018-12-15T02:11:45.270Z,22.70
2018-12-15T02:14:13.651Z,20.43
2018-12-15T02:16:41.840Z,20.77
2018-12-15T02:19:09.982Z,21.30
2018-12-15T02:21:38.182Z,22.13
2018-12-15T02:24:06.320Z,22.73
2018-12-15T02:26:34.452Z,21.97
2018-12-15T02:29:02.675Z,21.17
2018-12-15T02:31:30.811Z,21.67
2018-12-15T02:33:59.049Z,22.10
2018-12-15T02:36:27.190Z,21.53
2018-12-15T02:38:55.336Z,21.07
2018-12-15T02:41:23.570Z,22.27
2018-12-15T02:43:51.739Z,21.47
2018-12-15T02:46:19.878Z,21.00
2018-12-15T02:48:48.042Z,22.33
2018-12-15T02:51:16.294Z,21.53
2018-12-15T02:53:44.439Z,21.33
2018-12-15T02:56:12.662Z,21.73
2018-12-15T02:58:40.809Z,21.43
2018-12-15T03:01:09.011Z,20.80
2018-12-15T03:03:37.165Z,22.53
2018-12-15T03:06:05.316Z,20.87
2018-12-15T03:08:33.537Z,22.90
2018-12-15T03:11:01.694Z,22.40
2018-12-15T03:13:29.939Z,21.53
2018-12-15T03:15:58.102Z,23.47
2018-12-15T03:18:26.348Z,21.43
2018-12-15T03:21:01.427Z,22.07
2018-12-15T03:23:29.754Z,22.57
2018-12-15T03:25:58.312Z,23.37
2018-12-15T03:28:26.564Z,22.67
2018-12-15T03:30:54.714Z,22.83
2018-12-15T03:33:22.852Z,22.60
2018-12-15T03:35:51.017Z,22.57
2018-12-15T03:38:19.174Z,23.80
2018-12-15T03:40:47.412Z,23.40
2018-12-15T03:43:15.630Z,22.53
2018-12-15T03:45:43.853Z,22.90
2018-12-15T03:48:11.991Z,22.50
2018-12-15T03:50:40.165Z,23.20
2018-12-15T03:53:08.419Z,23.33
2018-12-15T03:55:36.581Z,24.13
2018-12-15T03:58:04.887Z,23.37
2018-12-15T04:00:33.146Z,23.77
2018-12-15T04:03:01.294Z,23.27
2018-12-15T04:05:29.460Z,24.03
2018-12-15T04:07:57.614Z,22.57
2018-12-15T04:10:25.763Z,22.83
2018-12-15T04:12:54.181Z,23.13
2018-12-15T04:15:22.413Z,23.50
2018-12-15T04:17:50.636Z,23.60
2018-12-15T04:20:18.813Z,23.10
2018-12-15T04:22:47.090Z,23.90
2018-12-15T04:25:15.241Z,23.97
2018-12-15T04:27:43.387Z,23.30
2018-12-15T04:30:11.613Z,24.90
2018-12-15T04:32:45.142Z,23.90
2018-12-15T04:35:10.109Z,24.80
2018-12-15T04:37:38.267Z,23.70
2018-12-15T04:40:07.640Z,24.70
2018-12-15T04:42:35.814Z,25.43
2018-12-15T04:45:04.189Z,23.50
2018-12-15T04:47:32.472Z,24.93
2018-12-15T04:50:00.716Z,24.70
2018-12-15T04:52:28.931Z,24.57
2018-12-15T04:54:57.161Z,23.97
2018-12-15T04:57:25.328Z,24.43
2018-12-15T04:59:53.514Z,24.87
2018-12-15T05:02:21.894Z,25.07
2018-12-15T05:04:50.049Z,24.13
2018-12-15T05:07:18.185Z,24.97
2018-12-15T05:09:46.420Z,25.10
2018-12-15T05:12:14.656Z,25.03
2018-12-15T05:14:42.838Z,23.93
2018-12-15T05:17:10.977Z,26.30
2018-12-15T05:19:39.142Z,25.53
2018-12-15T05:22:07.545Z,25.30
2018-12-15T05:24:35.700Z,25.00
2018-12-15T05:27:04.460Z,24.07
2018-12-15T05:29:33.541Z,24.33
2018-12-15T05:32:01.925Z,25.77
2018-12-15T05:34:31.281Z,25.23
2018-12-15T05:36:59.477Z,24.67
2018-12-15T05:39:27.689Z,25.07
2018-12-15T05:41:55.840Z,25.53
2018-12-15T05:44:24.132Z,25.73
2018-12-15T05:46:52.290Z,25.33
2018-12-15T05:49:20.425Z,24.93
2018-12-15T05:51:48.586Z,26.37
2018-12-15T05:54:16.738Z,24.67
2018-12-15T05:56:44.886Z,25.57
2018-12-15T05:59:13.061Z,25.43
2018-12-15T06:01:41.237Z,25.07
2018-12-15T06:04:09.441Z,26.00
2018-12-15T06:06:37.686Z,25.20
2018-12-15T06:09:06.618Z,26.40
2018-12-15T06:11:34.847Z,26.27
2018-12-15T06:14:04.202Z,26.13
2018-12-15T06:16:32.717Z,26.23
2018-12-15T06:19:00.872Z,26.43
2018-12-15T06:21:29.043Z,25.97
2018-12-15T06:23:57.277Z,26.60
2018-12-15T06:26:25.450Z,26.53
2018-12-15T06:28:53.596Z,26.37
2018-12-15T06:31:21.835Z,26.53
2018-12-15T06:33:50.054Z,26.53
2018-12-15T06:36:18.320Z,26.40
2018-12-15T06:38:46.493Z,27.37
2018-12-15T06:41:14.733Z,27.63
2018-12-15T06:43:43.229Z,26.40
2018-12-15T06:46:11.465Z,27.50
2018-12-15T06:48:39.614Z,28.20
2018-12-15T06:51:07.842Z,28.40
2018-12-15T06:53:35.991Z,28.60
2018-12-15T06:56:04.153Z,29.37
2018-12-15T06:58:32.297Z,29.27
2018-12-15T07:01:00.539Z,28.83
2018-12-15T07:03:28.890Z,30.07
2018-12-15T07:05:57.959Z,28.60
2018-12-15T07:08:26.521Z,30.30
2018-12-15T07:10:54.696Z,28.13
2018-12-15T07:13:22.909Z,28.70
2018-12-15T07:15:51.147Z,30.13
2018-12-15T07:18:19.314Z,27.23
2018-12-15T07:20:47.545Z,30.03
2018-12-15T07:23:15.714Z,29.87
2018-12-15T07:25:44.209Z,28.37
2018-12-15T07:28:12.360Z,30.13
2018-12-15T07:30:40.776Z,29.13
2018-12-15T07:33:09.021Z,28.47
2018-12-15T07:35:37.185Z,29.23
2018-12-15T07:38:05.374Z,29.07
2018-12-15T07:40:33.518Z,29.93
2018-12-15T07:43:01.728Z,30.10
2018-12-15T07:45:29.882Z,31.73
2018-12-15T07:47:58.096Z,29.93
2018-12-15T07:50:26.326Z,29.27
2018-12-15T07:52:54.467Z,29.67
2018-12-15T07:55:22.842Z,29.40
2018-12-15T07:57:51.050Z,29.90
2018-12-15T08:00:19.286Z,29.87
2018-12-15T08:05:22.125Z,29.40
2018-12-15T08:07:50.318Z,29.07
2018-12-15T08:10:23.151Z,30.53
2018-12-15T08:12:56.942Z,30.47
2018-12-15T08:15:25.751Z,30.80
2018-12-15T08:17:53.970Z,30.63
2018-12-15T08:20:28.454Z,32.17
2018-12-15T08:22:56.653Z,32.23
2018-12-15T08:25:24.828Z,32.03
2018-12-15T08:27:52.982Z,31.37
2018-12-15T08:30:21.261Z,31.13
2018-12-15T08:32:49.402Z,31.17
2018-12-15T08:35:17.669Z,31.50
2018-12-15T08:37:45.904Z,31.50
2018-12-15T08:40:14.254Z,31.07
2018-12-15T08:42:42.647Z,29.87
2018-12-15T08:45:10.981Z,30.60
2018-12-15T08:47:39.120Z,31.60
2018-12-15T08:50:07.438Z,31.77
2018-12-15T08:52:35.654Z,30.43
2018-12-15T08:55:04.290Z,31.60
2018-12-15T08:57:32.511Z,29.83
2018-12-15T09:00:00.654Z,31.23
2018-12-15T09:05:03.382Z,31.53
2018-12-15T09:07:31.536Z,30.37
2018-12-15T09:10:06.466Z,30.30
2018-12-15T09:12:34.621Z,30.97
2018-12-15T09:15:02.917Z,28.20
2018-12-15T09:17:31.082Z,29.40
2018-12-15T09:19:59.315Z,27.30
2018-12-15T09:22:27.498Z,26.63
2018-12-15T09:24:55.720Z,25.97
2018-12-15T09:27:23.926Z,23.83
2018-12-15T09:29:52.094Z,23.53
2018-12-15T09:32:20.257Z,23.20
2018-12-15T09:34:48.514Z,23.07
2018-12-15T09:37:16.693Z,22.43
2018-12-15T09:39:44.919Z,21.93
2018-12-15T09:42:13.078Z,22.17
2018-12-15T09:44:41.214Z,22.60
2018-12-15T09:47:09.473Z,21.90
2018-12-15T09:49:37.712Z,21.47
2018-12-15T09:52:05.944Z,20.60
2018-12-15T09:54:34.179Z,20.83
2018-12-15T09:57:02.502Z,21.97
2018-12-15T09:59:30.709Z,19.90
2018-12-15T10:01:58.945Z,21.53
2018-12-15T10:04:27.182Z,21.30
2018-12-15T10:06:55.339Z,20.83
2018-12-15T10:09:23.495Z,20.90
2018-12-15T10:11:51.646Z,20.37
2018-12-15T10:14:19.849Z,20.03
2018-12-15T10:16:47.990Z,20.00
2018-12-15T10:19:16.153Z,20.27
2018-12-15T10:21:44.302Z,18.97
2018-12-15T10:24:12.458Z,20.27
2018-12-15T10:26:40.694Z,19.27
2018-12-15T10:29:13.095Z,18.13
2018-12-15T10:31:46.449Z,18.63
2018-12-15T10:34:14.688Z,19.13
2018-12-15T10:36:42.826Z,19.60
2018-12-15T10:39:11.135Z,18.80
2018-12-15T10:41:39.298Z,19.43
2018-12-15T10:44:07.531Z,18.50
2018-12-15T10:46:35.758Z,19.33
2018-12-15T10:49:04.065Z,18.90
2018-12-15T10:51:32.616Z,18.63
2018-12-15T10:54:14.939Z,18.83
2018-12-15T10:56:43.158Z,18.93
2018-12-15T10:59:11.309Z,17.83
2018-12-15T11:01:39.529Z,18.57
2018-12-15T11:04:07.706Z,19.30
2018-12-15T11:06:35.866Z,19.37
2018-12-15T11:09:07.374Z,18.30
2018-12-15T11:11:35.583Z,19.27
2018-12-15T11:14:03.915Z,19.37
2018-12-15T11:16:32.194Z,19.07
2018-12-15T11:19:00.526Z,18.13
2018-12-15T11:21:28.746Z,18.73
2018-12-15T11:23:56.913Z,19.17
2018-12-15T11:26:25.321Z,17.97
2018-12-15T11:28:53.562Z,19.10
2018-12-15T11:31:21.762Z,18.57
2018-12-15T11:33:49.932Z,18.80
2018-12-15T11:36:18.250Z,18.33
2018-12-15T11:38:46.405Z,18.80
2018-12-15T11:41:14.578Z,17.43
2018-12-15T11:43:42.738Z,18.47
2018-12-15T11:46:10.896Z,18.57
2018-12-15T11:48:39.204Z,18.10
2018-12-15T11:51:07.445Z,18.90
2018-12-15T11:53:35.763Z,18.37
2018-12-15T11:56:04.042Z,18.57
2018-12-15T11:58:32.279Z,18.77
2018-12-15T12:01:00.501Z,20.03
2018-12-15T12:03:28.740Z,18.80
2018-12-15T12:05:56.899Z,19.13
2018-12-15T12:08:25.105Z,18.93
2018-12-15T12:10:53.321Z,18.93
2018-12-15T12:13:21.489Z,17.93
2018-12-15T12:15:49.652Z,18.03
2018-12-15T12:18:17.845Z,18.70
2018-12-15T12:20:46.004Z,19.70
2018-12-15T12:23:14.170Z,19.87
2018-12-15T12:25:42.450Z,18.40
2018-12-15T12:28:10.599Z,19.03
2018-12-15T12:30:38.756Z,18.47
2018-12-15T12:33:07.061Z,18.83
2018-12-15T12:35:35.281Z,19.37
2018-12-15T12:38:03.538Z,17.70
2018-12-15T12:40:31.760Z,18.03
2018-12-15T12:43:00.203Z,18.07
2018-12-15T12:45:28.442Z,18.17
2018-12-15T12:47:56.592Z,19.10
2018-12-15T12:50:24.824Z,18.00
2018-12-15T12:52:53.081Z,18.87
2018-12-15T12:55:21.267Z,19.03
2018-12-15T12:57:49.422Z,17.63
2018-12-15T13:00:17.585Z,18.83
2018-12-15T13:02:45.747Z,19.27
2018-12-15T13:05:14.081Z,18.10
2018-12-15T13:07:42.324Z,18.23
2018-12-15T13:10:10.671Z,17.73
2018-12-15T13:12:38.836Z,17.77
2018-12-15T13:15:07.163Z,18.47
2018-12-15T13:17:35.459Z,17.73
2018-12-15T13:20:04.043Z,18.00
2018-12-15T13:22:32.253Z,18.03
2018-12-15T13:25:00.429Z,18.33
2018-12-15T13:27:28.668Z,17.23
2018-12-15T13:29:56.833Z,17.97
2018-12-15T13:32:26.023Z,18.17
2018-12-15T13:34:54.248Z,18.50
2018-12-15T13:37:22.476Z,16.90
2018-12-15T13:39:50.715Z,18.57
2018-12-15T13:42:18.934Z,17.73
2018-12-15T13:44:47.245Z,18.10
2018-12-15T13:47:15.398Z,18.47
2018-12-15T13:49:43.726Z,17.93
2018-12-15T13:52:12.016Z,17.27
2018-12-15T13:54:40.168Z,17.30
2018-12-15T13:57:08.377Z,16.83
2018-12-15T13:59:36.629Z,17.40
2018-12-15T14:02:04.921Z,17.83
2018-12-15T14:04:33.138Z,18.10
2018-12-15T14:07:01.322Z,17.70
2018-12-15T14:09:29.539Z,17.60
2018-12-15T14:11:57.774Z,18.00
2018-12-15T14:14:26.142Z,18.63
2018-12-15T14:16:54.325Z,17.97
2018-12-15T14:19:22.562Z,17.70
2018-12-15T14:21:50.699Z,18.07
2018-12-15T14:24:18.899Z,17.63
2018-12-15T14:26:47.145Z,17.57
2018-12-15T14:29:15.362Z,18.47
2018-12-15T14:31:43.538Z,18.13
2018-12-15T14:34:11.680Z,18.10
2018-12-15T14:36:39.834Z,17.80
2018-12-15T14:39:08.325Z,18.43
2018-12-15T14:41:36.897Z,18.63
2018-12-15T14:44:05.166Z,18.13
2018-12-15T14:46:33.394Z,17.77
2018-12-15T14:49:01.541Z,18.07
2018-12-15T14:51:29.721Z,18.83
2018-12-15T14:53:57.871Z,18.07
2018-12-15T14:56:26.130Z,18.10
2018-12-15T14:58:54.269Z,19.30
2018-12-15T15:01:22.569Z,17.77
2018-12-15T15:03:50.716Z,18.63
2018-12-15T15:06:18.945Z,17.60
2018-12-15T15:08:47.168Z,18.47
2018-12-15T15:11:15.348Z,18.30
2018-12-15T15:13:43.598Z,18.43
2018-12-15T15:16:11.902Z,17.33
2018-12-15T15:18:40.160Z,17.57
2018-12-15T15:21:08.298Z,18.67
2018-12-15T15:23:36.466Z,17.03
2018-12-15T15:26:04.860Z,17.77
2018-12-15T15:28:33.026Z,15.73
2018-12-15T15:31:01.437Z,16.53
2018-12-15T15:33:29.661Z,20.30
2018-12-15T15:35:57.824Z,15.70
2018-12-15T15:38:26.052Z,15.53
2018-12-15T15:40:54.229Z,15.27
2018-12-15T15:43:22.481Z,14.57
2018-12-15T15:45:50.634Z,16.87
2018-12-15T15:48:18.833Z,17.20
2018-12-15T15:50:46.981Z,16.03
2018-12-15T15:53:15.148Z,15.67
2018-12-15T15:55:43.369Z,15.90
2018-12-15T15:58:11.553Z,14.60
2018-12-15T16:00:46.219Z,15.00
2018-12-15T16:03:14.390Z,15.13
2018-12-15T16:05:42.574Z,14.27
2018-12-15T16:08:10.813Z,15.10
2018-12-15T16:10:41.483Z,13.43
2018-12-15T16:13:09.786Z,12.93
2018-12-15T16:15:38.141Z,13.97
2018-12-15T16:18:06.401Z,12.63
2018-12-15T16:20:34.623Z,13.20
2018-12-15T16:23:02.858Z,13.10
2018-12-15T16:25:31.073Z,13.13
2018-12-15T16:27:59.981Z,12.03
2018-12-15T16:30:28.681Z,12.37
2018-12-15T16:32:56.910Z,13.30
2018-12-15T16:35:25.038Z,12.83
2018-12-15T16:37:53.387Z,12.43
2018-12-15T16:40:21.668Z,13.07
2018-12-15T16:42:50.030Z,13.20
2018-12-15T16:45:18.184Z,13.63
2018-12-15T16:47:46.534Z,13.90
2018-12-15T16:50:14.853Z,14.90
2018-12-15T16:52:43.361Z,14.87
2018-12-15T16:55:11.937Z,13.83
2018-12-15T16:57:40.302Z,15.13
2018-12-15T17:00:13.257Z,14.60
2018-12-15T17:02:41.498Z,15.47
2018-12-15T17:05:09.814Z,15.77
2018-12-15T17:07:38.024Z,15.37
2018-12-15T17:10:07.871Z,14.90
2018-12-15T17:12:40.374Z,16.80
2018-12-15T17:15:12.627Z,16.37
2018-12-15T17:17:43.239Z,16.37
2018-12-15T17:20:14.452Z,17.23
2018-12-15T17:22:45.177Z,16.53
2018-12-15T17:25:15.280Z,17.60
2018-12-15T17:27:46.765Z,18.03
2018-12-15T17:30:17.081Z,17.37
2018-12-15T17:32:45.299Z,17.70
2018-12-15T17:35:13.578Z,18.23
2018-12-15T17:37:41.692Z,18.47
2018-12-15T17:40:10.878Z,17.47
2018-12-15T17:42:39.183Z,16.50
2018-12-15T17:45:08.024Z,17.27
2018-12-15T17:47:36.304Z,16.30
2018-12-15T17:50:04.918Z,17.40
2018-12-15T17:52:33.138Z,16.73
2018-12-15T17:55:01.363Z,17.33
2018-12-15T17:57:29.610Z,16.93
2018-12-15T17:59:57.813Z,16.33
2018-12-15T18:02:26.122Z,16.67
2018-12-15T18:04:54.363Z,16.60
2018-12-15T18:07:22.497Z,18.60
2018-12-15T18:09:50.798Z,17.73
2018-12-15T18:12:19.010Z,17.03
2018-12-15T18:14:47.223Z,15.63
2018-12-15T18:17:15.379Z,14.87
2018-12-15T18:19:43.646Z,13.93
2018-12-15T18:22:11.898Z,16.73
2018-12-15T18:24:40.054Z,15.40
2018-12-15T18:27:08.241Z,15.30
2018-12-15T18:29:36.457Z,15.90
2018-12-15T18:32:04.693Z,14.57
2018-12-15T18:34:32.844Z,16.57
2018-12-15T18:37:01.150Z,15.03
2018-12-15T18:39:29.374Z,15.37
2018-12-15T18:41:57.522Z,16.07
2018-12-15T18:44:25.729Z,14.13
2018-12-15T18:46:53.962Z,15.50
2018-12-15T18:49:23.147Z,14.70
2018-12-15T18:51:51.373Z,14.63
2018-12-15T18:54:19.808Z,15.50
2018-12-15T18:56:49.120Z,15.47
2018-12-15T18:59:18.324Z,15.23
2018-12-15T19:01:47.252Z,16.40
2018-12-15T19:04:16.656Z,15.00
2018-12-15T19:06:45.959Z,14.60
2018-12-15T19:09:14.365Z,15.00
2018-12-15T19:11:42.754Z,14.07
2018-12-15T19:14:11.542Z,14.10
2018-12-15T19:16:40.067Z,15.10
2018-12-15T19:19:08.704Z,13.13
2018-12-15T19:21:37.336Z,13.60
2018-12-15T19:24:06.409Z,14.03
2018-12-15T19:26:35.300Z,13.27
2018-12-15T19:29:03.713Z,12.13
2018-12-15T19:31:32.152Z,12.73
2018-12-15T19:34:00.679Z,12.20
2018-12-15T19:36:29.214Z,12.73
2018-12-15T19:38:57.939Z,12.20
2018-12-15T19:41:27.776Z,12.67
2018-12-15T19:43:56.124Z,12.20
2018-12-15T19:46:25.042Z,12.10
2018-12-15T19:48:53.448Z,13.90
2018-12-15T19:51:22.067Z,13.27
2018-12-15T19:53:50.808Z,13.00
2018-12-15T19:56:19.917Z,13.20
2018-12-15T19:58:48.792Z,13.27
2018-12-15T20:01:17.888Z,13.00
2018-12-15T20:03:46.781Z,13.53
2018-12-15T20:06:15.611Z,13.03
2018-12-15T20:08:44.263Z,12.27
2018-12-15T20:11:14.171Z,12.67
2018-12-15T20:13:43.454Z,12.30
2018-12-15T20:16:13.859Z,13.37
2018-12-15T20:18:43.653Z,12.80
2018-12-15T20:21:15.742Z,12.90
2018-12-15T20:23:45.123Z,11.63
2018-12-15T20:26:14.185Z,12.00
2018-12-15T20:28:42.819Z,12.80
2018-12-15T20:31:11.841Z,13.23
2018-12-15T20:33:40.738Z,12.77
2018-12-15T20:36:08.975Z,13.10
2018-12-15T20:38:37.143Z,13.47
2018-12-15T20:41:05.293Z,12.67
2018-12-15T20:43:33.544Z,12.10
2018-12-15T20:46:01.706Z,11.83
2018-12-15T20:48:29.881Z,12.20
2018-12-15T20:50:58.042Z,11.33
2018-12-15T20:53:26.205Z,11.67
2018-12-15T20:55:54.423Z,11.60
2018-12-15T20:58:22.666Z,11.87
2018-12-15T21:00:50.884Z,11.37
2018-12-15T21:03:20.402Z,11.97
2018-12-15T21:05:48.585Z,13.17
2018-12-15T21:08:16.804Z,12.27
2018-12-15T21:10:45.089Z,12.43
2018-12-15T21:13:13.310Z,11.40
2018-12-15T21:15:44.585Z,11.37
2018-12-15T21:18:12.800Z,12.63
2018-12-15T21:20:41.138Z,12.47
2018-12-15T21:23:09.438Z,11.60
2018-12-15T21:25:37.721Z,12.40
2018-12-15T21:28:05.859Z,12.83
2018-12-15T21:30:34.139Z,11.60
2018-12-15T21:33:02.279Z,12.50
2018-12-15T21:35:30.509Z,12.97
2018-12-15T21:37:58.732Z,11.60
2018-12-15T21:40:26.937Z,11.70
2018-12-15T21:42:55.186Z,12.50
2018-12-15T21:45:23.489Z,11.73
2018-12-15T21:47:57.406Z,12.43
2018-12-15T21:50:21.849Z,12.27
2018-12-15T21:52:50.085Z,12.77
2018-12-15T21:55:18.383Z,11.97
2018-12-15T21:57:46.593Z,11.33
2018-12-15T22:00:14.897Z,11.23
2018-12-15T22:02:43.182Z,11.50
2018-12-15T22:05:11.421Z,12.33
2018-12-15T22:07:39.557Z,10.77
2018-12-15T22:10:08.850Z,11.23
2018-12-15T22:12:37.066Z,11.77
2018-12-15T22:15:05.797Z,10.37
2018-12-15T22:17:34.069Z,11.23
2018-12-15T22:20:02.302Z,10.93
2018-12-15T22:22:30.702Z,11.17
2018-12-15T22:24:58.945Z,11.37
2018-12-15T22:27:27.117Z,11.00
2018-12-15T22:29:55.363Z,11.57
2018-12-15T22:32:23.578Z,11.03
2018-12-15T22:34:51.805Z,11.37
2018-12-15T22:37:19.962Z,11.53
2018-12-15T22:39:48.156Z,10.80
2018-12-15T22:42:22.710Z,11.83
2018-12-15T22:44:50.904Z,10.57
2018-12-15T22:47:19.156Z,10.83
2018-12-15T22:49:47.356Z,11.53
2018-12-15T22:52:15.507Z,10.53
2018-12-15T22:54:43.721Z,11.47
2018-12-15T22:57:11.879Z,11.17
2018-12-15T22:59:40.017Z,11.40
2018-12-15T23:02:08.162Z,11.97
2018-12-15T23:04:36.313Z,11.60
2018-12-15T23:07:04.539Z,11.67
2018-12-15T23:09:32.835Z,10.93
2018-12-15T23:12:01.108Z,11.43
2018-12-15T23:14:29.349Z,12.13
2018-12-15T23:16:57.490Z,11.40
2018-12-15T23:19:25.719Z,12.30
2018-12-15T23:21:53.930Z,11.63
2018-12-15T23:24:22.193Z,11.77
2018-12-15T23:26:50.398Z,12.43
2018-12-15T23:29:18.644Z,11.83
2018-12-15T23:31:46.857Z,12.33
2018-12-15T23:34:15.008Z,11.33
2018-12-15T23:36:43.214Z,13.13
2018-12-15T23:39:11.434Z,12.63
2018-12-15T23:41:39.590Z,12.40
2018-12-15T23:44:07.888Z,12.77
2018-12-15T23:46:36.117Z,11.87
2018-12-15T23:49:04.341Z,11.83
2018-12-15T23:51:32.468Z,13.03
2018-12-15T23:54:00.695Z,12.47
2018-12-15T23:56:28.830Z,12.77
2018-12-15T23:58:56.984Z,14.70
